sensor_id;sensor_type;location;lat;lon;timestamp;pressure;altitude;pressure_sealevel;temperature;humidity
57628;BME280;43451;49.060;10.616;2023-05-10T00:02:01;96028.06;;;13.91;100.00
57628;BME280;43451;49.060;10.616;2023-05-10T00:04:30;96033.03;;;13.97;100.00
57628;BME280;43451;49.060;10.616;2023-05-10T00:06:56;96029.78;;;13.85;100.00
57628;BME280;43451;49.060;10.616;2023-05-10T00:09:22;96035.41;;;13.94;100.00
57628;BME280;43451;49.060;10.616;2023-05-10T00:11:47;96034.97;;;13.96;100.00
57628;BME280;43451;49.060;10.616;2023-05-10T00:14:13;96032.72;;;14.07;100.00
57628;BME280;43451;49.060;10.616;2023-05-10T00:16:38;96032.16;;;14.00;100.00
57628;BME280;43451;49.060;10.616;2023-05-10T00:19:04;96027.91;;;13.99;100.00
57628;BME280;43451;49.060;10.616;2023-05-10T00:21:29;96028.41;;;13.93;100.00
57628;BME280;43451;49.060;10.616;2023-05-10T00:23:55;96025.34;;;13.91;100.00
57628;BME280;43451;49.060;10.616;2023-05-10T00:26:20;96028.06;;;13.91;100.00
57628;BME280;43451;49.060;10.616;2023-05-10T00:28:46;96023.00;;;13.77;100.00
57628;BME280;43451;49.060;10.616;2023-05-10T00:31:11;96025.38;;;13.75;100.00
57628;BME280;43451;49.060;10.616;2023-05-10T00:33:37;96020.78;;;13.72;100.00
57628;BME280;43451;49.060;10.616;2023-05-10T00:36:02;96026.91;;;13.76;100.00
57628;BME280;43451;49.060;10.616;2023-05-10T00:38:28;96020.69;;;13.76;100.00
57628;BME280;43451;49.060;10.616;2023-05-10T00:40:53;96027.84;;;13.69;100.00
57628;BME280;43451;49.060;10.616;2023-05-10T00:43:19;96029.66;;;13.60;100.00
57628;BME280;43451;49.060;10.616;2023-05-10T00:45:44;96029.34;;;13.58;100.00
57628;BME280;43451;49.060;10.616;2023-05-10T00:48:10;96026.44;;;13.49;100.00
57628;BME280;43451;49.060;10.616;2023-05-10T00:50:35;96034.72;;;13.45;100.00
57628;BME280;43451;49.060;10.616;2023-05-10T00:53:01;96023.78;;;13.45;100.00
57628;BME280;43451;49.060;10.616;2023-05-10T00:55:27;96026.09;;;13.46;100.00
57628;BME280;43451;49.060;10.616;2023-05-10T00:57:53;96024.81;;;13.51;100.00
57628;BME280;43451;49.060;10.616;2023-05-10T01:00:19;96026.00;;;13.50;100.00
57628;BME280;43451;49.060;10.616;2023-05-10T01:02:45;96024.19;;;13.60;100.00
57628;BME280;43451;49.060;10.616;2023-05-10T01:05:11;96033.69;;;13.55;100.00
57628;BME280;43451;49.060;10.616;2023-05-10T01:07:36;96038.47;;;13.51;100.00
57628;BME280;43451;49.060;10.616;2023-05-10T01:10:02;96038.53;;;13.47;100.00
57628;BME280;43451;49.060;10.616;2023-05-10T01:12:27;96030.03;;;13.45;100.00
57628;BME280;43451;49.060;10.616;2023-05-10T01:14:53;96031.63;;;13.43;100.00
57628;BME280;43451;49.060;10.616;2023-05-10T01:17:19;96031.53;;;13.46;100.00
57628;BME280;43451;49.060;10.616;2023-05-10T01:19:45;96030.50;;;13.57;100.00
57628;BME280;43451;49.060;10.616;2023-05-10T01:29:44;96027.69;;;13.44;100.00
57628;BME280;43451;49.060;10.616;2023-05-10T01:34:38;96035.47;;;13.45;100.00
57628;BME280;43451;49.060;10.616;2023-05-10T01:37:09;96032.91;;;13.55;100.00
57628;BME280;43451;49.060;10.616;2023-05-10T01:39:37;96030.59;;;13.53;100.00
57628;BME280;43451;49.060;10.616;2023-05-10T01:42:08;96037.53;;;13.58;100.00
57628;BME280;43451;49.060;10.616;2023-05-10T01:44:35;96040.94;;;13.45;100.00
57628;BME280;43451;49.060;10.616;2023-05-10T01:49:29;96043.13;;;13.34;100.00
57628;BME280;43451;49.060;10.616;2023-05-10T01:51:59;96037.69;;;13.34;100.00
57628;BME280;43451;49.060;10.616;2023-05-10T01:54:25;96045.19;;;13.30;100.00
57628;BME280;43451;49.060;10.616;2023-05-10T01:56:55;96038.22;;;13.29;100.00
57628;BME280;43451;49.060;10.616;2023-05-10T01:59:22;96043.09;;;13.18;100.00
57628;BME280;43451;49.060;10.616;2023-05-10T02:01:52;96044.78;;;13.12;100.00
57628;BME280;43451;49.060;10.616;2023-05-10T02:04:18;96052.72;;;13.06;100.00
57628;BME280;43451;49.060;10.616;2023-05-10T02:06:44;96052.03;;;13.02;100.00
57628;BME280;43451;49.060;10.616;2023-05-10T02:09:11;96051.28;;;13.01;100.00
57628;BME280;43451;49.060;10.616;2023-05-10T02:11:38;96050.25;;;13.12;100.00
57628;BME280;43451;49.060;10.616;2023-05-10T02:14:05;96046.16;;;13.04;100.00
57628;BME280;43451;49.060;10.616;2023-05-10T02:16:33;96045.97;;;12.94;100.00
57628;BME280;43451;49.060;10.616;2023-05-10T02:19:00;96047.06;;;12.97;100.00
57628;BME280;43451;49.060;10.616;2023-05-10T02:21:26;96046.81;;;12.91;100.00
57628;BME280;43451;49.060;10.616;2023-05-10T02:23:53;96058.97;;;12.87;100.00
57628;BME280;43451;49.060;10.616;2023-05-10T02:26:19;96056.34;;;12.83;100.00
57628;BME280;43451;49.060;10.616;2023-05-10T02:28:46;96058.78;;;12.77;100.00
57628;BME280;43451;49.060;10.616;2023-05-10T02:31:12;96061.09;;;12.79;100.00
57628;BME280;43451;49.060;10.616;2023-05-10T02:33:39;96063.91;;;12.75;100.00
57628;BME280;43451;49.060;10.616;2023-05-10T02:36:05;96072.78;;;12.80;100.00
57628;BME280;43451;49.060;10.616;2023-05-10T02:38:32;96070.44;;;12.78;100.00
57628;BME280;43451;49.060;10.616;2023-05-10T02:40:58;96068.94;;;12.77;100.00
57628;BME280;43451;49.060;10.616;2023-05-10T02:43:24;96064.31;;;12.74;100.00
57628;BME280;43451;49.060;10.616;2023-05-10T02:45:50;96062.78;;;12.73;100.00
57628;BME280;43451;49.060;10.616;2023-05-10T02:48:16;96065.50;;;12.73;100.00
57628;BME280;43451;49.060;10.616;2023-05-10T02:50:43;96063.63;;;12.70;100.00
57628;BME280;43451;49.060;10.616;2023-05-10T02:53:15;96070.19;;;12.72;100.00
57628;BME280;43451;49.060;10.616;2023-05-10T02:55:40;96070.59;;;12.71;100.00
57628;BME280;43451;49.060;10.616;2023-05-10T02:58:07;96075.28;;;12.70;100.00
57628;BME280;43451;49.060;10.616;2023-05-10T03:00:32;96076.06;;;12.71;100.00
57628;BME280;43451;49.060;10.616;2023-05-10T03:02:58;96072.84;;;12.76;100.00
57628;BME280;43451;49.060;10.616;2023-05-10T03:05:23;96076.41;;;12.73;100.00
57628;BME280;43451;49.060;10.616;2023-05-10T03:07:49;96077.94;;;12.74;100.00
57628;BME280;43451;49.060;10.616;2023-05-10T03:10:14;96076.78;;;12.75;100.00
57628;BME280;43451;49.060;10.616;2023-05-10T03:15:22;96076.81;;;12.71;100.00
57628;BME280;43451;49.060;10.616;2023-05-10T03:20:51;96081.75;;;12.60;100.00
57628;BME280;43451;49.060;10.616;2023-05-10T03:26:24;96094.81;;;12.69;100.00
57628;BME280;43451;49.060;10.616;2023-05-10T03:28:50;96094.34;;;12.90;100.00
57628;BME280;43451;49.060;10.616;2023-05-10T03:31:17;96097.91;;;12.87;100.00
57628;BME280;43451;49.060;10.616;2023-05-10T03:33:46;96099.72;;;12.94;100.00
57628;BME280;43451;49.060;10.616;2023-05-10T03:36:12;96093.66;;;12.86;100.00
57628;BME280;43451;49.060;10.616;2023-05-10T03:38:38;96102.84;;;12.76;100.00
57628;BME280;43451;49.060;10.616;2023-05-10T03:41:03;96106.41;;;12.73;100.00
57628;BME280;43451;49.060;10.616;2023-05-10T03:43:29;96109.69;;;12.64;100.00
57628;BME280;43451;49.060;10.616;2023-05-10T03:45:54;96106.81;;;12.51;100.00
57628;BME280;43451;49.060;10.616;2023-05-10T03:48:20;96110.75;;;12.50;100.00
57628;BME280;43451;49.060;10.616;2023-05-10T03:50:45;96108.34;;;12.52;100.00
57628;BME280;43451;49.060;10.616;2023-05-10T03:53:10;96120.22;;;12.42;100.00
57628;BME280;43451;49.060;10.616;2023-05-10T03:55:37;96116.09;;;12.34;100.00
57628;BME280;43451;49.060;10.616;2023-05-10T03:58:02;96120.75;;;12.34;100.00
57628;BME280;43451;49.060;10.616;2023-05-10T04:00:28;96129.06;;;12.26;100.00
57628;BME280;43451;49.060;10.616;2023-05-10T04:02:53;96125.72;;;12.19;100.00
57628;BME280;43451;49.060;10.616;2023-05-10T04:05:19;96129.84;;;12.27;100.00
57628;BME280;43451;49.060;10.616;2023-05-10T04:07:44;96135.28;;;12.27;100.00
57628;BME280;43451;49.060;10.616;2023-05-10T04:10:10;96127.53;;;12.25;100.00
57628;BME280;43451;49.060;10.616;2023-05-10T04:12:36;96136.13;;;12.24;100.00
57628;BME280;43451;49.060;10.616;2023-05-10T04:15:01;96137.44;;;12.16;100.00
57628;BME280;43451;49.060;10.616;2023-05-10T04:17:27;96139.28;;;12.22;100.00
57628;BME280;43451;49.060;10.616;2023-05-10T04:19:52;96140.78;;;12.23;100.00
57628;BME280;43451;49.060;10.616;2023-05-10T04:22:19;96150.56;;;12.21;100.00
57628;BME280;43451;49.060;10.616;2023-05-10T04:24:45;96145.00;;;12.28;100.00
57628;BME280;43451;49.060;10.616;2023-05-10T04:27:10;96144.84;;;12.15;100.00
57628;BME280;43451;49.060;10.616;2023-05-10T04:29:36;96138.16;;;12.40;100.00
57628;BME280;43451;49.060;10.616;2023-05-10T04:32:02;96145.78;;;12.48;100.00
57628;BME280;43451;49.060;10.616;2023-05-10T04:34:28;96138.81;;;12.47;100.00
57628;BME280;43451;49.060;10.616;2023-05-10T04:36:54;96142.00;;;12.42;100.00
57628;BME280;43451;49.060;10.616;2023-05-10T04:39:19;96152.38;;;12.51;100.00
57628;BME280;43451;49.060;10.616;2023-05-10T04:41:45;96143.13;;;12.25;100.00
57628;BME280;43451;49.060;10.616;2023-05-10T04:44:10;96140.88;;;12.20;100.00
57628;BME280;43451;49.060;10.616;2023-05-10T04:46:36;96150.47;;;12.04;100.00
57628;BME280;43451;49.060;10.616;2023-05-10T04:49:01;96142.41;;;11.97;100.00
57628;BME280;43451;49.060;10.616;2023-05-10T04:51:27;96145.84;;;12.01;100.00
57628;BME280;43451;49.060;10.616;2023-05-10T04:53:52;96157.31;;;11.89;100.00
57628;BME280;43451;49.060;10.616;2023-05-10T04:56:18;96156.66;;;12.05;100.00
57628;BME280;43451;49.060;10.616;2023-05-10T04:58:43;96171.06;;;12.05;100.00
57628;BME280;43451;49.060;10.616;2023-05-10T05:01:09;96158.16;;;12.10;100.00
57628;BME280;43451;49.060;10.616;2023-05-10T05:03:35;96161.25;;;12.12;100.00
57628;BME280;43451;49.060;10.616;2023-05-10T05:06:01;96165.97;;;12.07;100.00
57628;BME280;43451;49.060;10.616;2023-05-10T05:08:27;96161.00;;;12.02;100.00
57628;BME280;43451;49.060;10.616;2023-05-10T05:10:52;96163.00;;;11.98;100.00
57628;BME280;43451;49.060;10.616;2023-05-10T05:13:18;96180.28;;;11.88;100.00
57628;BME280;43451;49.060;10.616;2023-05-10T05:15:43;96180.22;;;11.92;100.00
57628;BME280;43451;49.060;10.616;2023-05-10T05:18:09;96182.59;;;11.90;100.00
57628;BME280;43451;49.060;10.616;2023-05-10T05:20:34;96179.41;;;11.95;100.00
57628;BME280;43451;49.060;10.616;2023-05-10T05:23:00;96182.56;;;11.93;100.00
57628;BME280;43451;49.060;10.616;2023-05-10T05:25:26;96178.75;;;12.11;100.00
57628;BME280;43451;49.060;10.616;2023-05-10T05:27:51;96181.41;;;12.14;100.00
57628;BME280;43451;49.060;10.616;2023-05-10T05:30:17;96184.50;;;12.16;100.00
57628;BME280;43451;49.060;10.616;2023-05-10T05:32:42;96201.16;;;12.22;100.00
57628;BME280;43451;49.060;10.616;2023-05-10T05:35:08;96195.66;;;12.45;100.00
57628;BME280;43451;49.060;10.616;2023-05-10T05:37:33;96191.50;;;12.61;100.00
57628;BME280;43451;49.060;10.616;2023-05-10T05:39:59;96191.06;;;12.42;100.00
57628;BME280;43451;49.060;10.616;2023-05-10T05:42:26;96204.34;;;12.40;100.00
57628;BME280;43451;49.060;10.616;2023-05-10T05:44:52;96208.00;;;12.53;100.00
57628;BME280;43451;49.060;10.616;2023-05-10T05:47:17;96202.88;;;12.55;100.00
57628;BME280;43451;49.060;10.616;2023-05-10T05:49:42;96204.16;;;12.71;100.00
57628;BME280;43451;49.060;10.616;2023-05-10T05:52:10;96199.97;;;12.66;100.00
57628;BME280;43451;49.060;10.616;2023-05-10T05:54:36;96206.75;;;12.78;100.00
57628;BME280;43451;49.060;10.616;2023-05-10T05:57:01;96206.56;;;12.69;100.00
57628;BME280;43451;49.060;10.616;2023-05-10T05:59:27;96204.53;;;12.49;100.00
57628;BME280;43451;49.060;10.616;2023-05-10T06:01:53;96203.53;;;12.40;100.00
57628;BME280;43451;49.060;10.616;2023-05-10T06:04:18;96213.16;;;12.48;100.00
57628;BME280;43451;49.060;10.616;2023-05-10T06:06:44;96213.34;;;12.37;100.00
57628;BME280;43451;49.060;10.616;2023-05-10T06:09:09;96219.72;;;12.50;100.00
57628;BME280;43451;49.060;10.616;2023-05-10T06:11:35;96225.63;;;12.45;100.00
57628;BME280;43451;49.060;10.616;2023-05-10T06:14:01;96231.69;;;12.57;100.00
57628;BME280;43451;49.060;10.616;2023-05-10T06:16:27;96234.50;;;12.49;100.00
57628;BME280;43451;49.060;10.616;2023-05-10T06:18:52;96235.13;;;12.37;100.00
57628;BME280;43451;49.060;10.616;2023-05-10T06:21:18;96236.88;;;12.24;100.00
57628;BME280;43451;49.060;10.616;2023-05-10T06:23:43;96249.69;;;12.27;100.00
57628;BME280;43451;49.060;10.616;2023-05-10T06:26:09;96240.22;;;12.35;100.00
57628;BME280;43451;49.060;10.616;2023-05-10T06:28:34;96242.94;;;12.35;100.00
57628;BME280;43451;49.060;10.616;2023-05-10T06:31:00;96251.47;;;12.37;100.00
57628;BME280;43451;49.060;10.616;2023-05-10T06:33:25;96252.69;;;12.32;100.00
57628;BME280;43451;49.060;10.616;2023-05-10T06:35:51;96242.56;;;12.33;100.00
57628;BME280;43451;49.060;10.616;2023-05-10T06:38:17;96249.09;;;12.39;100.00
57628;BME280;43451;49.060;10.616;2023-05-10T06:40:42;96247.56;;;12.38;100.00
57628;BME280;43451;49.060;10.616;2023-05-10T06:43:08;96251.75;;;12.43;100.00
57628;BME280;43451;49.060;10.616;2023-05-10T06:45:34;96247.84;;;12.67;100.00
57628;BME280;43451;49.060;10.616;2023-05-10T06:47:59;96259.88;;;12.70;100.00
57628;BME280;43451;49.060;10.616;2023-05-10T06:50:25;96256.59;;;12.55;100.00
57628;BME280;43451;49.060;10.616;2023-05-10T06:52:50;96251.59;;;12.53;100.00
57628;BME280;43451;49.060;10.616;2023-05-10T06:55:16;96261.88;;;12.42;100.00
57628;BME280;43451;49.060;10.616;2023-05-10T06:57:41;96266.63;;;12.38;100.00
57628;BME280;43451;49.060;10.616;2023-05-10T07:00:07;96271.25;;;12.41;100.00
57628;BME280;43451;49.060;10.616;2023-05-10T07:02:34;96268.84;;;12.47;100.00
57628;BME280;43451;49.060;10.616;2023-05-10T07:05:00;96265.69;;;12.48;100.00
57628;BME280;43451;49.060;10.616;2023-05-10T07:07:25;96278.06;;;12.53;100.00
57628;BME280;43451;49.060;10.616;2023-05-10T07:09:50;96280.06;;;12.72;100.00
57628;BME280;43451;49.060;10.616;2023-05-10T07:12:16;96267.63;;;12.71;100.00
57628;BME280;43451;49.060;10.616;2023-05-10T07:14:41;96270.41;;;12.68;100.00
57628;BME280;43451;49.060;10.616;2023-05-10T07:17:07;96281.53;;;12.77;100.00
57628;BME280;43451;49.060;10.616;2023-05-10T07:19:32;96277.50;;;12.85;100.00
57628;BME280;43451;49.060;10.616;2023-05-10T07:21:58;96279.84;;;13.07;100.00
57628;BME280;43451;49.060;10.616;2023-05-10T07:24:23;96278.28;;;13.06;100.00
57628;BME280;43451;49.060;10.616;2023-05-10T07:26:49;96276.84;;;13.21;100.00
57628;BME280;43451;49.060;10.616;2023-05-10T07:29:14;96280.34;;;13.21;100.00
57628;BME280;43451;49.060;10.616;2023-05-10T07:31:40;96279.28;;;13.15;100.00
57628;BME280;43451;49.060;10.616;2023-05-10T07:34:08;96285.38;;;13.23;100.00
57628;BME280;43451;49.060;10.616;2023-05-10T07:36:34;96284.63;;;13.22;100.00
57628;BME280;43451;49.060;10.616;2023-05-10T07:38:59;96282.94;;;13.29;100.00
57628;BME280;43451;49.060;10.616;2023-05-10T07:41:24;96289.03;;;13.36;100.00
57628;BME280;43451;49.060;10.616;2023-05-10T07:43:50;96285.81;;;13.41;100.00
57628;BME280;43451;49.060;10.616;2023-05-10T07:46:15;96286.59;;;13.42;100.00
57628;BME280;43451;49.060;10.616;2023-05-10T07:48:40;96287.00;;;13.40;100.00
57628;BME280;43451;49.060;10.616;2023-05-10T07:51:06;96285.91;;;13.58;100.00
57628;BME280;43451;49.060;10.616;2023-05-10T07:53:34;96291.03;;;13.72;100.00
57628;BME280;43451;49.060;10.616;2023-05-10T07:56:19;96291.41;;;13.74;100.00
57628;BME280;43451;49.060;10.616;2023-05-10T07:58:44;96288.69;;;13.90;100.00
57628;BME280;43451;49.060;10.616;2023-05-10T08:01:10;96280.97;;;14.05;100.00
57628;BME280;43451;49.060;10.616;2023-05-10T08:03:35;96293.19;;;14.33;100.00
57628;BME280;43451;49.060;10.616;2023-05-10T08:06:00;96290.66;;;14.75;100.00
57628;BME280;43451;49.060;10.616;2023-05-10T08:08:26;96283.47;;;14.81;100.00
57628;BME280;43451;49.060;10.616;2023-05-10T08:10:51;96293.41;;;14.59;100.00
57628;BME280;43451;49.060;10.616;2023-05-10T08:13:17;96287.66;;;14.37;100.00
57628;BME280;43451;49.060;10.616;2023-05-10T08:15:42;96293.72;;;14.45;100.00
57628;BME280;43451;49.060;10.616;2023-05-10T08:18:07;96289.88;;;14.58;100.00
57628;BME280;43451;49.060;10.616;2023-05-10T08:20:33;96290.66;;;14.59;100.00
57628;BME280;43451;49.060;10.616;2023-05-10T08:22:58;96285.84;;;14.47;100.00
57628;BME280;43451;49.060;10.616;2023-05-10T08:25:23;96288.31;;;14.41;100.00
57628;BME280;43451;49.060;10.616;2023-05-10T08:27:49;96290.72;;;14.55;100.00
57628;BME280;43451;49.060;10.616;2023-05-10T08:30:15;96291.25;;;14.34;100.00
57628;BME280;43451;49.060;10.616;2023-05-10T08:32:40;96287.09;;;14.62;100.00
57628;BME280;43451;49.060;10.616;2023-05-10T08:35:05;96289.88;;;14.75;100.00
57628;BME280;43451;49.060;10.616;2023-05-10T08:37:31;96291.09;;;15.03;100.00
57628;BME280;43451;49.060;10.616;2023-05-10T08:39:58;96294.47;;;14.94;100.00
57628;BME280;43451;49.060;10.616;2023-05-10T08:42:23;96295.34;;;14.75;100.00
57628;BME280;43451;49.060;10.616;2023-05-10T08:44:51;96292.84;;;14.80;100.00
57628;BME280;43451;49.060;10.616;2023-05-10T08:47:17;96310.56;;;14.59;100.00
57628;BME280;43451;49.060;10.616;2023-05-10T08:49:43;96309.34;;;14.77;100.00
57628;BME280;43451;49.060;10.616;2023-05-10T08:52:09;96318.41;;;14.57;100.00
57628;BME280;43451;49.060;10.616;2023-05-10T08:54:36;96308.25;;;14.58;100.00
57628;BME280;43451;49.060;10.616;2023-05-10T08:57:02;96315.78;;;14.54;100.00
57628;BME280;43451;49.060;10.616;2023-05-10T08:59:27;96315.56;;;14.45;100.00
57628;BME280;43451;49.060;10.616;2023-05-10T09:01:53;96319.84;;;14.46;100.00
57628;BME280;43451;49.060;10.616;2023-05-10T09:04:20;96314.25;;;14.69;100.00
57628;BME280;43451;49.060;10.616;2023-05-10T09:06:45;96313.53;;;14.65;100.00
57628;BME280;43451;49.060;10.616;2023-05-10T09:09:11;96306.69;;;14.90;100.00
57628;BME280;43451;49.060;10.616;2023-05-10T09:11:37;96311.25;;;15.09;100.00
57628;BME280;43451;49.060;10.616;2023-05-10T09:14:02;96314.16;;;15.18;100.00
57628;BME280;43451;49.060;10.616;2023-05-10T09:16:27;96316.31;;;15.40;100.00
57628;BME280;43451;49.060;10.616;2023-05-10T09:18:53;96321.13;;;15.36;100.00
57628;BME280;43451;49.060;10.616;2023-05-10T09:21:19;96322.00;;;15.32;100.00
57628;BME280;43451;49.060;10.616;2023-05-10T09:23:44;96321.03;;;15.39;100.00
57628;BME280;43451;49.060;10.616;2023-05-10T09:26:11;96314.38;;;15.53;100.00
57628;BME280;43451;49.060;10.616;2023-05-10T09:28:56;96320.50;;;15.57;100.00
57628;BME280;43451;49.060;10.616;2023-05-10T09:31:22;96313.59;;;15.82;100.00
57628;BME280;43451;49.060;10.616;2023-05-10T09:33:49;96321.41;;;15.96;100.00
57628;BME280;43451;49.060;10.616;2023-05-10T09:36:14;96312.09;;;16.06;100.00
57628;BME280;43451;49.060;10.616;2023-05-10T09:38:47;96315.38;;;16.27;100.00
57628;BME280;43451;49.060;10.616;2023-05-10T09:41:16;96314.63;;;16.26;100.00
57628;BME280;43451;49.060;10.616;2023-05-10T09:43:42;96332.38;;;15.96;100.00
57628;BME280;43451;49.060;10.616;2023-05-10T09:46:11;96323.91;;;15.77;100.00
57628;BME280;43451;49.060;10.616;2023-05-10T09:48:46;96315.03;;;15.86;100.00
57628;BME280;43451;49.060;10.616;2023-05-10T09:51:23;96323.84;;;15.65;100.00
57628;BME280;43451;49.060;10.616;2023-05-10T09:54:08;96319.00;;;15.56;100.00
57628;BME280;43451;49.060;10.616;2023-05-10T09:56:34;96319.63;;;15.47;100.00
57628;BME280;43451;49.060;10.616;2023-05-10T09:59:04;96322.59;;;15.53;100.00
57628;BME280;43451;49.060;10.616;2023-05-10T10:01:30;96317.28;;;15.33;100.00
57628;BME280;43451;49.060;10.616;2023-05-10T10:03:56;96330.72;;;15.27;100.00
57628;BME280;43451;49.060;10.616;2023-05-10T10:06:23;96326.97;;;15.21;100.00
57628;BME280;43451;49.060;10.616;2023-05-10T10:08:48;96334.09;;;15.02;100.00
57628;BME280;43451;49.060;10.616;2023-05-10T10:11:14;96322.50;;;14.82;100.00
57628;BME280;43451;49.060;10.616;2023-05-10T10:13:40;96322.41;;;14.85;100.00
57628;BME280;43451;49.060;10.616;2023-05-10T10:16:05;96318.47;;;14.86;100.00
57628;BME280;43451;49.060;10.616;2023-05-10T10:18:31;96322.41;;;14.85;100.00
57628;BME280;43451;49.060;10.616;2023-05-10T10:20:57;96316.59;;;14.83;100.00
57628;BME280;43451;49.060;10.616;2023-05-10T10:23:23;96326.00;;;14.82;100.00
57628;BME280;43451;49.060;10.616;2023-05-10T10:25:49;96319.84;;;14.95;100.00
57628;BME280;43451;49.060;10.616;2023-05-10T10:28:32;96328.75;;;14.82;100.00
57628;BME280;43451;49.060;10.616;2023-05-10T10:31:03;96329.25;;;14.77;100.00
57628;BME280;43451;49.060;10.616;2023-05-10T10:36:05;96327.91;;;14.85;100.00
57628;BME280;43451;49.060;10.616;2023-05-10T10:38:37;96322.00;;;14.71;100.00
57628;BME280;43451;49.060;10.616;2023-05-10T10:41:10;96331.31;;;14.73;100.00
57628;BME280;43451;49.060;10.616;2023-05-10T10:43:37;96322.34;;;14.56;100.00
57628;BME280;43451;49.060;10.616;2023-05-10T10:48:34;96320.19;;;14.80;100.00
57628;BME280;43451;49.060;10.616;2023-05-10T10:50:59;96326.84;;;14.96;100.00
57628;BME280;43451;49.060;10.616;2023-05-10T10:53:28;96322.84;;;15.00;100.00
57628;BME280;43451;49.060;10.616;2023-05-10T10:58:33;96324.09;;;15.12;100.00
57628;BME280;43451;49.060;10.616;2023-05-10T11:03:36;96325.72;;;14.93;100.00
57628;BME280;43451;49.060;10.616;2023-05-10T11:06:01;96320.22;;;15.09;100.00
57628;BME280;43451;49.060;10.616;2023-05-10T11:08:31;96316.03;;;15.21;100.00
57628;BME280;43451;49.060;10.616;2023-05-10T11:16:19;96314.69;;;15.71;98.85
57628;BME280;43451;49.060;10.616;2023-05-10T11:21:23;96312.50;;;15.92;98.42
57628;BME280;43451;49.060;10.616;2023-05-10T11:23:49;96314.84;;;16.06;93.19
57628;BME280;43451;49.060;10.616;2023-05-10T11:26:15;96305.75;;;16.22;95.21
57628;BME280;43451;49.060;10.616;2023-05-10T11:28:41;96310.22;;;16.16;90.84
57628;BME280;43451;49.060;10.616;2023-05-10T11:31:07;96317.34;;;15.88;88.95
57628;BME280;43451;49.060;10.616;2023-05-10T11:33:42;96310.84;;;15.69;92.00
57628;BME280;43451;49.060;10.616;2023-05-10T11:36:10;96318.75;;;15.80;95.20
57628;BME280;43451;49.060;10.616;2023-05-10T11:38:36;96317.06;;;15.69;97.34
57628;BME280;43451;49.060;10.616;2023-05-10T11:41:01;96325.41;;;15.78;86.79
57628;BME280;43451;49.060;10.616;2023-05-10T11:43:26;96318.63;;;15.70;89.68
57628;BME280;43451;49.060;10.616;2023-05-10T11:45:55;96318.94;;;15.72;91.27
57628;BME280;43451;49.060;10.616;2023-05-10T11:48:21;96326.22;;;15.63;91.43
57628;BME280;43451;49.060;10.616;2023-05-10T11:50:49;96334.91;;;15.61;94.46
57628;BME280;43451;49.060;10.616;2023-05-10T11:53:14;96335.22;;;15.63;99.76
57628;BME280;43451;49.060;10.616;2023-05-10T11:55:39;96346.88;;;15.38;100.00
57628;BME280;43451;49.060;10.616;2023-05-10T11:58:05;96335.28;;;15.18;100.00
57628;BME280;43451;49.060;10.616;2023-05-10T12:00:30;96335.03;;;15.12;100.00
57628;BME280;43451;49.060;10.616;2023-05-10T12:02:56;96340.97;;;14.94;100.00
57628;BME280;43451;49.060;10.616;2023-05-10T12:05:22;96352.59;;;14.82;100.00
57628;BME280;43451;49.060;10.616;2023-05-10T12:07:47;96350.97;;;14.84;100.00
57628;BME280;43451;49.060;10.616;2023-05-10T12:10:13;96345.59;;;14.65;100.00
57628;BME280;43451;49.060;10.616;2023-05-10T12:12:45;96355.25;;;14.53;100.00
57628;BME280;43451;49.060;10.616;2023-05-10T12:17:39;96352.84;;;14.55;100.00
57628;BME280;43451;49.060;10.616;2023-05-10T12:20:15;96349.44;;;14.51;100.00
57628;BME280;43451;49.060;10.616;2023-05-10T12:22:42;96353.28;;;14.53;100.00
57628;BME280;43451;49.060;10.616;2023-05-10T12:25:08;96348.22;;;14.52;100.00
57628;BME280;43451;49.060;10.616;2023-05-10T12:27:34;96340.03;;;14.52;100.00
57628;BME280;43451;49.060;10.616;2023-05-10T12:30:00;96348.50;;;14.57;100.00
57628;BME280;43451;49.060;10.616;2023-05-10T12:32:40;96352.53;;;14.69;100.00
57628;BME280;43451;49.060;10.616;2023-05-10T12:35:07;96353.19;;;14.73;100.00
57628;BME280;43451;49.060;10.616;2023-05-10T12:37:33;96352.84;;;14.71;100.00
57628;BME280;43451;49.060;10.616;2023-05-10T12:40:03;96349.78;;;14.85;100.00
57628;BME280;43451;49.060;10.616;2023-05-10T12:42:30;96347.88;;;14.99;100.00
57628;BME280;43451;49.060;10.616;2023-05-10T12:44:56;96356.69;;;14.90;100.00
57628;BME280;43451;49.060;10.616;2023-05-10T12:47:22;96364.72;;;14.97;100.00
57628;BME280;43451;49.060;10.616;2023-05-10T12:49:47;96358.66;;;14.90;100.00
57628;BME280;43451;49.060;10.616;2023-05-10T12:52:13;96357.38;;;14.94;100.00
57628;BME280;43451;49.060;10.616;2023-05-10T12:54:38;96361.19;;;14.97;100.00
57628;BME280;43451;49.060;10.616;2023-05-10T12:57:03;96361.56;;;14.99;100.00
57628;BME280;43451;49.060;10.616;2023-05-10T12:59:29;96357.78;;;15.09;100.00
57628;BME280;43451;49.060;10.616;2023-05-10T13:01:54;96359.13;;;15.17;100.00
57628;BME280;43451;49.060;10.616;2023-05-10T13:04:20;96345.81;;;15.19;100.00
57628;BME280;43451;49.060;10.616;2023-05-10T13:06:45;96357.06;;;15.21;100.00
57628;BME280;43451;49.060;10.616;2023-05-10T13:09:11;96362.44;;;15.25;100.00
57628;BME280;43451;49.060;10.616;2023-05-10T13:11:36;96356.66;;;15.23;100.00
57628;BME280;43451;49.060;10.616;2023-05-10T13:14:02;96356.00;;;15.48;100.00
57628;BME280;43451;49.060;10.616;2023-05-10T13:16:28;96350.78;;;15.66;100.00
57628;BME280;43451;49.060;10.616;2023-05-10T13:18:53;96343.38;;;15.67;100.00